sensor_id;sensor_type;location;lat;lon;timestamp;temperature;humidity
64888;DHT22;51386;53.082;8.816;2023-05-23T00:02:16;18.70;79.30
64888;DHT22;51386;53.082;8.816;2023-05-23T00:04:44;18.70;79.40
64888;DHT22;51386;53.082;8.816;2023-05-23T00:07:11;18.60;79.40
64888;DHT22;51386;53.082;8.816;2023-05-23T00:09:38;18.60;79.30
64888;DHT22;51386;53.082;8.816;2023-05-23T00:12:05;18.60;79.50
64888;DHT22;51386;53.082;8.816;2023-05-23T00:14:32;18.60;79.60
64888;DHT22;51386;53.082;8.816;2023-05-23T00:17:01;18.50;79.60
64888;DHT22;51386;53.082;8.816;2023-05-23T00:19:29;18.50;79.60
64888;DHT22;51386;53.082;8.816;2023-05-23T00:21:56;18.50;79.50
64888;DHT22;51386;53.082;8.816;2023-05-23T00:24:24;18.50;79.60
64888;DHT22;51386;53.082;8.816;2023-05-23T00:26:51;18.50;79.70
64888;DHT22;51386;53.082;8.816;2023-05-23T00:29:18;18.50;79.70
64888;DHT22;51386;53.082;8.816;2023-05-23T00:31:45;18.50;79.60
64888;DHT22;51386;53.082;8.816;2023-05-23T00:34:13;18.50;79.60
64888;DHT22;51386;53.082;8.816;2023-05-23T00:36:42;18.50;79.70
64888;DHT22;51386;53.082;8.816;2023-05-23T00:39:10;18.40;79.70
64888;DHT22;51386;53.082;8.816;2023-05-23T00:41:46;18.40;79.80
64888;DHT22;51386;53.082;8.816;2023-05-23T00:44:17;18.40;79.60
64888;DHT22;51386;53.082;8.816;2023-05-23T00:46:49;18.40;79.70
64888;DHT22;51386;53.082;8.816;2023-05-23T00:49:19;18.40;79.70
64888;DHT22;51386;53.082;8.816;2023-05-23T00:51:48;18.40;79.60
64888;DHT22;51386;53.082;8.816;2023-05-23T00:54:19;18.40;80.30
64888;DHT22;51386;53.082;8.816;2023-05-23T00:56:50;18.40;79.60
64888;DHT22;51386;53.082;8.816;2023-05-23T00:59:17;18.40;79.50
64888;DHT22;51386;53.082;8.816;2023-05-23T01:01:47;18.40;79.40
64888;DHT22;51386;53.082;8.816;2023-05-23T01:04:17;18.40;79.20
64888;DHT22;51386;53.082;8.816;2023-05-23T01:06:48;18.40;79.10
64888;DHT22;51386;53.082;8.816;2023-05-23T01:09:16;18.40;79.00
64888;DHT22;51386;53.082;8.816;2023-05-23T01:11:49;18.40;78.90
64888;DHT22;51386;53.082;8.816;2023-05-23T01:14:28;18.40;79.10
64888;DHT22;51386;53.082;8.816;2023-05-23T01:17:06;18.40;79.20
64888;DHT22;51386;53.082;8.816;2023-05-23T01:19:50;18.40;79.30
64888;DHT22;51386;53.082;8.816;2023-05-23T01:22:53;18.30;79.30
64888;DHT22;51386;53.082;8.816;2023-05-23T01:25:51;18.30;79.50
64888;DHT22;51386;53.082;8.816;2023-05-23T01:28:32;18.30;79.50
64888;DHT22;51386;53.082;8.816;2023-05-23T01:31:04;18.30;79.70
64888;DHT22;51386;53.082;8.816;2023-05-23T01:33:37;18.30;79.70
64888;DHT22;51386;53.082;8.816;2023-05-23T01:36:06;18.30;80.00
64888;DHT22;51386;53.082;8.816;2023-05-23T01:38:34;18.20;79.80
64888;DHT22;51386;53.082;8.816;2023-05-23T01:41:01;18.20;79.80
64888;DHT22;51386;53.082;8.816;2023-05-23T01:43:29;18.20;79.90
64888;DHT22;51386;53.082;8.816;2023-05-23T01:45:58;18.20;80.00
64888;DHT22;51386;53.082;8.816;2023-05-23T01:48:28;18.10;79.90
64888;DHT22;51386;53.082;8.816;2023-05-23T01:50:56;18.10;80.20
64888;DHT22;51386;53.082;8.816;2023-05-23T01:53:25;18.10;80.30
64888;DHT22;51386;53.082;8.816;2023-05-23T01:55:53;18.10;80.30
64888;DHT22;51386;53.082;8.816;2023-05-23T01:58:21;18.10;80.30
64888;DHT22;51386;53.082;8.816;2023-05-23T02:00:49;18.10;80.60
64888;DHT22;51386;53.082;8.816;2023-05-23T02:03:17;18.10;80.70
64888;DHT22;51386;53.082;8.816;2023-05-23T02:05:44;18.10;80.70
64888;DHT22;51386;53.082;8.816;2023-05-23T02:08:11;18.10;80.70
64888;DHT22;51386;53.082;8.816;2023-05-23T02:10:38;18.20;80.70
64888;DHT22;51386;53.082;8.816;2023-05-23T02:13:05;18.20;80.60
64888;DHT22;51386;53.082;8.816;2023-05-23T02:15:32;18.20;80.30
64888;DHT22;51386;53.082;8.816;2023-05-23T02:18:00;18.20;80.30
64888;DHT22;51386;53.082;8.816;2023-05-23T02:20:28;18.20;80.40
64888;DHT22;51386;53.082;8.816;2023-05-23T02:22:55;18.20;80.40
64888;DHT22;51386;53.082;8.816;2023-05-23T02:25:22;18.20;80.50
64888;DHT22;51386;53.082;8.816;2023-05-23T02:27:49;18.20;80.50
64888;DHT22;51386;53.082;8.816;2023-05-23T02:30:16;18.20;80.60
64888;DHT22;51386;53.082;8.816;2023-05-23T02:32:43;18.20;80.70
64888;DHT22;51386;53.082;8.816;2023-05-23T02:35:12;18.20;80.90
64888;DHT22;51386;53.082;8.816;2023-05-23T02:37:39;18.20;80.90
64888;DHT22;51386;53.082;8.816;2023-05-23T02:40:07;18.20;81.10
64888;DHT22;51386;53.082;8.816;2023-05-23T02:42:35;18.20;81.10
64888;DHT22;51386;53.082;8.816;2023-05-23T02:45:02;18.20;81.00
64888;DHT22;51386;53.082;8.816;2023-05-23T02:47:29;18.20;81.10
64888;DHT22;51386;53.082;8.816;2023-05-23T02:49:56;18.20;81.20
64888;DHT22;51386;53.082;8.816;2023-05-23T02:52:25;18.20;81.20
64888;DHT22;51386;53.082;8.816;2023-05-23T02:54:52;18.20;81.30
64888;DHT22;51386;53.082;8.816;2023-05-23T02:57:19;18.20;81.50
64888;DHT22;51386;53.082;8.816;2023-05-23T02:59:46;18.20;81.50
64888;DHT22;51386;53.082;8.816;2023-05-23T03:02:13;18.20;81.50
64888;DHT22;51386;53.082;8.816;2023-05-23T03:04:40;18.20;81.60
64888;DHT22;51386;53.082;8.816;2023-05-23T03:07:07;18.20;81.50
64888;DHT22;51386;53.082;8.816;2023-05-23T03:09:54;18.20;81.70
64888;DHT22;51386;53.082;8.816;2023-05-23T03:12:21;18.20;81.90
64888;DHT22;51386;53.082;8.816;2023-05-23T03:14:48;18.20;81.90
64888;DHT22;51386;53.082;8.816;2023-05-23T03:17:15;18.10;82.10
64888;DHT22;51386;53.082;8.816;2023-05-23T03:19:43;18.20;82.50
64888;DHT22;51386;53.082;8.816;2023-05-23T03:22:10;18.10;82.60
64888;DHT22;51386;53.082;8.816;2023-05-23T03:24:37;18.10;83.00
64888;DHT22;51386;53.082;8.816;2023-05-23T03:27:05;18.10;83.70
64888;DHT22;51386;53.082;8.816;2023-05-23T03:29:32;18.10;83.70
64888;DHT22;51386;53.082;8.816;2023-05-23T03:31:59;18.10;84.00
64888;DHT22;51386;53.082;8.816;2023-05-23T03:34:26;18.10;84.30
64888;DHT22;51386;53.082;8.816;2023-05-23T03:36:53;18.00;84.50
64888;DHT22;51386;53.082;8.816;2023-05-23T03:39:20;18.00;84.80
64888;DHT22;51386;53.082;8.816;2023-05-23T03:41:49;18.10;84.80
64888;DHT22;51386;53.082;8.816;2023-05-23T03:44:18;18.00;85.00
64888;DHT22;51386;53.082;8.816;2023-05-23T03:46:45;17.90;85.20
64888;DHT22;51386;53.082;8.816;2023-05-23T03:49:12;17.90;85.50
64888;DHT22;51386;53.082;8.816;2023-05-23T03:51:39;17.90;85.60
64888;DHT22;51386;53.082;8.816;2023-05-23T03:54:06;17.90;85.90
64888;DHT22;51386;53.082;8.816;2023-05-23T03:56:33;17.90;85.80
64888;DHT22;51386;53.082;8.816;2023-05-23T03:59:01;17.90;86.00
64888;DHT22;51386;53.082;8.816;2023-05-23T04:01:29;17.90;86.30
64888;DHT22;51386;53.082;8.816;2023-05-23T04:03:56;17.90;86.30
64888;DHT22;51386;53.082;8.816;2023-05-23T04:06:23;17.80;86.40
64888;DHT22;51386;53.082;8.816;2023-05-23T04:08:51;17.80;86.50
64888;DHT22;51386;53.082;8.816;2023-05-23T04:11:18;17.80;86.70
64888;DHT22;51386;53.082;8.816;2023-05-23T04:13:45;17.70;87.20
64888;DHT22;51386;53.082;8.816;2023-05-23T04:16:12;17.70;87.50
64888;DHT22;51386;53.082;8.816;2023-05-23T04:18:41;17.80;87.60
64888;DHT22;51386;53.082;8.816;2023-05-23T04:21:09;17.70;87.60
64888;DHT22;51386;53.082;8.816;2023-05-23T04:23:36;17.70;87.60
64888;DHT22;51386;53.082;8.816;2023-05-23T04:26:04;17.70;87.80
64888;DHT22;51386;53.082;8.816;2023-05-23T04:28:32;17.70;87.90
64888;DHT22;51386;53.082;8.816;2023-05-23T04:30:59;17.70;88.10
64888;DHT22;51386;53.082;8.816;2023-05-23T04:33:28;17.70;87.90
64888;DHT22;51386;53.082;8.816;2023-05-23T04:35:57;17.70;88.00
64888;DHT22;51386;53.082;8.816;2023-05-23T04:38:24;17.70;88.10
64888;DHT22;51386;53.082;8.816;2023-05-23T04:40:52;17.60;88.30
64888;DHT22;51386;53.082;8.816;2023-05-23T04:43:19;17.60;88.50
64888;DHT22;51386;53.082;8.816;2023-05-23T04:45:47;17.60;88.70
64888;DHT22;51386;53.082;8.816;2023-05-23T04:48:19;17.60;88.90
64888;DHT22;51386;53.082;8.816;2023-05-23T04:50:49;17.60;89.20
64888;DHT22;51386;53.082;8.816;2023-05-23T04:53:19;17.60;89.10
64888;DHT22;51386;53.082;8.816;2023-05-23T04:55:46;17.60;89.20
64888;DHT22;51386;53.082;8.816;2023-05-23T04:58:14;17.60;89.30
64888;DHT22;51386;53.082;8.816;2023-05-23T05:00:41;17.60;89.40
64888;DHT22;51386;53.082;8.816;2023-05-23T05:03:08;17.60;89.30
64888;DHT22;51386;53.082;8.816;2023-05-23T05:05:35;17.60;89.10
64888;DHT22;51386;53.082;8.816;2023-05-23T05:08:02;17.60;88.70
64888;DHT22;51386;53.082;8.816;2023-05-23T05:10:31;17.60;88.70
64888;DHT22;51386;53.082;8.816;2023-05-23T05:12:58;17.60;88.30
64888;DHT22;51386;53.082;8.816;2023-05-23T05:15:25;17.60;87.70
64888;DHT22;51386;53.082;8.816;2023-05-23T05:17:52;17.60;87.40
64888;DHT22;51386;53.082;8.816;2023-05-23T05:20:19;17.50;87.20
64888;DHT22;51386;53.082;8.816;2023-05-23T05:22:54;17.50;87.40
64888;DHT22;51386;53.082;8.816;2023-05-23T05:25:23;17.50;87.40
64888;DHT22;51386;53.082;8.816;2023-05-23T05:27:51;17.40;87.40
64888;DHT22;51386;53.082;8.816;2023-05-23T05:30:19;17.40;87.30
64888;DHT22;51386;53.082;8.816;2023-05-23T05:32:46;17.40;87.00
64888;DHT22;51386;53.082;8.816;2023-05-23T05:35:13;17.30;86.90
64888;DHT22;51386;53.082;8.816;2023-05-23T05:37:40;17.30;87.30
64888;DHT22;51386;53.082;8.816;2023-05-23T05:40:07;17.30;86.90
64888;DHT22;51386;53.082;8.816;2023-05-23T05:42:35;17.20;86.80
64888;DHT22;51386;53.082;8.816;2023-05-23T05:45:05;17.20;86.40
64888;DHT22;51386;53.082;8.816;2023-05-23T05:47:32;17.20;86.60
64888;DHT22;51386;53.082;8.816;2023-05-23T05:49:59;17.20;87.10
64888;DHT22;51386;53.082;8.816;2023-05-23T05:52:27;17.10;86.90
64888;DHT22;51386;53.082;8.816;2023-05-23T05:54:54;17.20;87.40
64888;DHT22;51386;53.082;8.816;2023-05-23T05:57:23;17.10;86.90
64888;DHT22;51386;53.082;8.816;2023-05-23T05:59:50;17.10;86.40
64888;DHT22;51386;53.082;8.816;2023-05-23T06:02:19;17.10;86.20
64888;DHT22;51386;53.082;8.816;2023-05-23T06:04:46;17.00;86.10
64888;DHT22;51386;53.082;8.816;2023-05-23T06:07:13;17.00;86.70
64888;DHT22;51386;53.082;8.816;2023-05-23T06:09:40;17.00;87.00
64888;DHT22;51386;53.082;8.816;2023-05-23T06:12:07;17.00;86.90
64888;DHT22;51386;53.082;8.816;2023-05-23T06:14:34;17.00;86.90
64888;DHT22;51386;53.082;8.816;2023-05-23T06:17:02;17.00;85.90
64888;DHT22;51386;53.082;8.816;2023-05-23T06:19:30;17.00;86.10
64888;DHT22;51386;53.082;8.816;2023-05-23T06:21:57;17.00;85.40
64888;DHT22;51386;53.082;8.816;2023-05-23T06:24:24;17.00;85.70
64888;DHT22;51386;53.082;8.816;2023-05-23T06:26:51;16.90;85.30
64888;DHT22;51386;53.082;8.816;2023-05-23T06:29:18;16.90;85.60
64888;DHT22;51386;53.082;8.816;2023-05-23T06:31:45;16.90;86.10
64888;DHT22;51386;53.082;8.816;2023-05-23T06:34:12;16.90;85.90
64888;DHT22;51386;53.082;8.816;2023-05-23T06:36:41;16.80;85.50
64888;DHT22;51386;53.082;8.816;2023-05-23T06:39:08;16.80;86.30
64888;DHT22;51386;53.082;8.816;2023-05-23T06:41:35;16.80;85.80
64888;DHT22;51386;53.082;8.816;2023-05-23T06:44:02;16.70;85.80
64888;DHT22;51386;53.082;8.816;2023-05-23T06:46:30;16.70;86.20
64888;DHT22;51386;53.082;8.816;2023-05-23T06:48:57;16.70;86.00
64888;DHT22;51386;53.082;8.816;2023-05-23T06:51:41;16.70;85.90
64888;DHT22;51386;53.082;8.816;2023-05-23T06:54:08;16.70;85.80
64888;DHT22;51386;53.082;8.816;2023-05-23T06:56:36;16.70;85.80
64888;DHT22;51386;53.082;8.816;2023-05-23T06:59:02;16.70;85.70
64888;DHT22;51386;53.082;8.816;2023-05-23T07:01:29;16.70;85.20
64888;DHT22;51386;53.082;8.816;2023-05-23T07:03:56;16.60;85.20
64888;DHT22;51386;53.082;8.816;2023-05-23T07:06:24;16.60;85.40
64888;DHT22;51386;53.082;8.816;2023-05-23T07:08:54;16.60;85.20
64888;DHT22;51386;53.082;8.816;2023-05-23T07:11:21;16.70;85.50
64888;DHT22;51386;53.082;8.816;2023-05-23T07:13:48;16.60;85.20
64888;DHT22;51386;53.082;8.816;2023-05-23T07:16:15;16.60;85.10
64888;DHT22;51386;53.082;8.816;2023-05-23T07:18:42;16.70;85.20
64888;DHT22;51386;53.082;8.816;2023-05-23T07:21:09;16.70;85.10
64888;DHT22;51386;53.082;8.816;2023-05-23T07:23:36;16.70;84.30
64888;DHT22;51386;53.082;8.816;2023-05-23T07:26:05;16.60;84.40
64888;DHT22;51386;53.082;8.816;2023-05-23T07:28:35;16.60;83.80
64888;DHT22;51386;53.082;8.816;2023-05-23T07:31:03;16.60;84.10
64888;DHT22;51386;53.082;8.816;2023-05-23T07:33:30;16.60;84.20
64888;DHT22;51386;53.082;8.816;2023-05-23T07:36:00;16.60;83.90
64888;DHT22;51386;53.082;8.816;2023-05-23T07:38:27;16.40;83.30
64888;DHT22;51386;53.082;8.816;2023-05-23T07:40:54;16.40;83.30
64888;DHT22;51386;53.082;8.816;2023-05-23T07:43:38;16.40;84.20
64888;DHT22;51386;53.082;8.816;2023-05-23T07:46:05;16.40;83.90
64888;DHT22;51386;53.082;8.816;2023-05-23T07:48:32;16.40;83.30
64888;DHT22;51386;53.082;8.816;2023-05-23T07:50:59;16.40;83.10
64888;DHT22;51386;53.082;8.816;2023-05-23T07:53:26;16.30;83.40
64888;DHT22;51386;53.082;8.816;2023-05-23T07:55:53;16.30;83.00
64888;DHT22;51386;53.082;8.816;2023-05-23T07:58:20;16.20;82.90
64888;DHT22;51386;53.082;8.816;2023-05-23T08:00:50;16.20;83.40
64888;DHT22;51386;53.082;8.816;2023-05-23T08:03:19;16.20;83.70
64888;DHT22;51386;53.082;8.816;2023-05-23T08:05:46;16.10;83.90
64888;DHT22;51386;53.082;8.816;2023-05-23T08:08:13;16.10;84.30
64888;DHT22;51386;53.082;8.816;2023-05-23T08:11:00;16.10;84.40
64888;DHT22;51386;53.082;8.816;2023-05-23T08:13:43;16.00;84.30
64888;DHT22;51386;53.082;8.816;2023-05-23T08:16:13;16.00;84.30
64888;DHT22;51386;53.082;8.816;2023-05-23T08:18:41;16.00;85.10
64888;DHT22;51386;53.082;8.816;2023-05-23T08:21:09;16.00;85.70
64888;DHT22;51386;53.082;8.816;2023-05-23T08:23:37;15.90;84.70
64888;DHT22;51386;53.082;8.816;2023-05-23T08:26:05;15.80;84.40
64888;DHT22;51386;53.082;8.816;2023-05-23T08:28:33;15.70;84.40
64888;DHT22;51386;53.082;8.816;2023-05-23T08:31:02;15.70;84.90
64888;DHT22;51386;53.082;8.816;2023-05-23T08:33:31;15.70;84.90
64888;DHT22;51386;53.082;8.816;2023-05-23T08:35:59;15.70;84.90
64888;DHT22;51386;53.082;8.816;2023-05-23T08:38:27;15.60;84.80
64888;DHT22;51386;53.082;8.816;2023-05-23T08:40:55;15.60;84.80
64888;DHT22;51386;53.082;8.816;2023-05-23T08:44:00;15.60;84.80
64888;DHT22;51386;53.082;8.816;2023-05-23T08:46:29;15.60;84.30
64888;DHT22;51386;53.082;8.816;2023-05-23T08:49:01;15.60;83.70
64888;DHT22;51386;53.082;8.816;2023-05-23T08:51:31;15.60;83.50
64888;DHT22;51386;53.082;8.816;2023-05-23T08:54:10;15.60;83.00
64888;DHT22;51386;53.082;8.816;2023-05-23T08:56:42;15.60;82.80
64888;DHT22;51386;53.082;8.816;2023-05-23T08:59:16;15.70;83.60
64888;DHT22;51386;53.082;8.816;2023-05-23T09:01:51;15.80;82.90
64888;DHT22;51386;53.082;8.816;2023-05-23T09:04:23;15.80;82.30
64888;DHT22;51386;53.082;8.816;2023-05-23T09:06:50;15.80;80.80
64888;DHT22;51386;53.082;8.816;2023-05-23T09:09:17;15.80;80.70
64888;DHT22;51386;53.082;8.816;2023-05-23T09:11:45;15.70;79.90
64888;DHT22;51386;53.082;8.816;2023-05-23T09:14:12;15.80;80.50
64888;DHT22;51386;53.082;8.816;2023-05-23T09:16:40;15.80;80.70
64888;DHT22;51386;53.082;8.816;2023-05-23T09:19:14;15.80;80.10
64888;DHT22;51386;53.082;8.816;2023-05-23T09:21:43;15.70;79.70
64888;DHT22;51386;53.082;8.816;2023-05-23T09:24:11;15.80;79.80
64888;DHT22;51386;53.082;8.816;2023-05-23T09:26:38;15.70;79.90
64888;DHT22;51386;53.082;8.816;2023-05-23T09:29:05;15.70;79.70
64888;DHT22;51386;53.082;8.816;2023-05-23T09:31:33;15.70;79.50
64888;DHT22;51386;53.082;8.816;2023-05-23T09:34:00;15.70;79.10
64888;DHT22;51386;53.082;8.816;2023-05-23T09:36:28;15.80;79.00
64888;DHT22;51386;53.082;8.816;2023-05-23T09:39:01;15.80;78.90
64888;DHT22;51386;53.082;8.816;2023-05-23T09:41:31;15.80;79.10
64888;DHT22;51386;53.082;8.816;2023-05-23T09:44:04;15.90;78.40
64888;DHT22;51386;53.082;8.816;2023-05-23T09:46:34;15.90;77.20
64888;DHT22;51386;53.082;8.816;2023-05-23T09:49:14;15.90;76.30
64888;DHT22;51386;53.082;8.816;2023-05-23T09:51:43;16.00;76.80
64888;DHT22;51386;53.082;8.816;2023-05-23T09:54:24;16.00;74.70
64888;DHT22;51386;53.082;8.816;2023-05-23T09:56:52;16.00;73.40
64888;DHT22;51386;53.082;8.816;2023-05-23T09:59:21;16.00;73.50
64888;DHT22;51386;53.082;8.816;2023-05-23T10:01:55;16.00;72.40
64888;DHT22;51386;53.082;8.816;2023-05-23T10:04:24;16.10;73.00
64888;DHT22;51386;53.082;8.816;2023-05-23T10:07:01;16.10;71.50
64888;DHT22;51386;53.082;8.816;2023-05-23T10:09:36;16.20;71.20
64888;DHT22;51386;53.082;8.816;2023-05-23T10:15:14;16.00;69.20
64888;DHT22;51386;53.082;8.816;2023-05-23T10:18:01;16.10;70.00
64888;DHT22;51386;53.082;8.816;2023-05-23T10:20:32;16.20;69.20
64888;DHT22;51386;53.082;8.816;2023-05-23T10:23:02;16.30;69.70
64888;DHT22;51386;53.082;8.816;2023-05-23T10:25:32;16.40;66.80
64888;DHT22;51386;53.082;8.816;2023-05-23T10:28:03;16.50;67.00
64888;DHT22;51386;53.082;8.816;2023-05-23T10:30:31;16.60;66.80
64888;DHT22;51386;53.082;8.816;2023-05-23T10:32:59;16.70;66.90
64888;DHT22;51386;53.082;8.816;2023-05-23T10:35:40;16.80;66.90
64888;DHT22;51386;53.082;8.816;2023-05-23T10:38:26;16.80;65.90
64888;DHT22;51386;53.082;8.816;2023-05-23T10:41:08;16.90;66.00
64888;DHT22;51386;53.082;8.816;2023-05-23T10:43:43;16.90;65.10
64888;DHT22;51386;53.082;8.816;2023-05-23T10:46:14;17.00;65.50
64888;DHT22;51386;53.082;8.816;2023-05-23T10:48:43;17.10;64.30
64888;DHT22;51386;53.082;8.816;2023-05-23T10:51:12;17.10;64.40
64888;DHT22;51386;53.082;8.816;2023-05-23T10:53:41;17.10;63.30
64888;DHT22;51386;53.082;8.816;2023-05-23T10:56:18;17.20;61.90
64888;DHT22;51386;53.082;8.816;2023-05-23T10:58:51;17.40;61.60
64888;DHT22;51386;53.082;8.816;2023-05-23T11:01:19;17.50;60.90
64888;DHT22;51386;53.082;8.816;2023-05-23T11:03:51;17.50;61.50
64888;DHT22;51386;53.082;8.816;2023-05-23T11:06:31;17.60;60.00
64888;DHT22;51386;53.082;8.816;2023-05-23T11:09:05;17.60;60.20
64888;DHT22;51386;53.082;8.816;2023-05-23T11:12:00;17.70;59.20
64888;DHT22;51386;53.082;8.816;2023-05-23T11:14:50;17.80;59.90
64888;DHT22;51386;53.082;8.816;2023-05-23T11:17:31;17.90;58.80
64888;DHT22;51386;53.082;8.816;2023-05-23T11:20:02;17.90;58.30
64888;DHT22;51386;53.082;8.816;2023-05-23T11:22:34;17.90;58.80
64888;DHT22;51386;53.082;8.816;2023-05-23T11:25:06;17.90;58.20
64888;DHT22;51386;53.082;8.816;2023-05-23T11:27:36;18.00;58.80
64888;DHT22;51386;53.082;8.816;2023-05-23T11:30:07;18.10;59.00
64888;DHT22;51386;53.082;8.816;2023-05-23T11:32:35;18.10;58.10
64888;DHT22;51386;53.082;8.816;2023-05-23T11:35:05;18.10;58.10
64888;DHT22;51386;53.082;8.816;2023-05-23T11:37:34;18.10;57.90
64888;DHT22;51386;53.082;8.816;2023-05-23T11:40:25;18.00;57.80
64888;DHT22;51386;53.082;8.816;2023-05-23T11:42:55;18.00;58.00
64888;DHT22;51386;53.082;8.816;2023-05-23T11:45:22;18.00;57.60
64888;DHT22;51386;53.082;8.816;2023-05-23T11:47:50;17.90;57.70
64888;DHT22;51386;53.082;8.816;2023-05-23T11:50:18;17.90;58.00
64888;DHT22;51386;53.082;8.816;2023-05-23T11:52:48;17.90;57.50
64888;DHT22;51386;53.082;8.816;2023-05-23T11:55:19;17.90;57.30
64888;DHT22;51386;53.082;8.816;2023-05-23T11:57:47;17.90;57.20
64888;DHT22;51386;53.082;8.816;2023-05-23T12:00:17;18.00;57.20
64888;DHT22;51386;53.082;8.816;2023-05-23T12:02:45;18.00;55.40
64888;DHT22;51386;53.082;8.816;2023-05-23T12:05:14;18.00;56.10
64888;DHT22;51386;53.082;8.816;2023-05-23T12:07:42;18.10;56.40
64888;DHT22;51386;53.082;8.816;2023-05-23T12:10:11;18.00;56.60
64888;DHT22;51386;53.082;8.816;2023-05-23T12:12:39;18.00;57.00
64888;DHT22;51386;53.082;8.816;2023-05-23T12:15:09;18.10;56.00
64888;DHT22;51386;53.082;8.816;2023-05-23T12:17:42;18.00;55.60
64888;DHT22;51386;53.082;8.816;2023-05-23T12:20:11;18.10;55.10
64888;DHT22;51386;53.082;8.816;2023-05-23T12:22:40;18.20;55.30
64888;DHT22;51386;53.082;8.816;2023-05-23T12:25:08;18.20;54.70
64888;DHT22;51386;53.082;8.816;2023-05-23T12:27:39;18.30;54.60
64888;DHT22;51386;53.082;8.816;2023-05-23T12:30:12;18.40;55.40
64888;DHT22;51386;53.082;8.816;2023-05-23T12:32:43;18.50;54.00
64888;DHT22;51386;53.082;8.816;2023-05-23T12:35:13;18.50;53.80
64888;DHT22;51386;53.082;8.816;2023-05-23T12:37:43;18.60;53.60
64888;DHT22;51386;53.082;8.816;2023-05-23T12:40:13;18.70;53.30
64888;DHT22;51386;53.082;8.816;2023-05-23T12:42:48;18.60;53.20
64888;DHT22;51386;53.082;8.816;2023-05-23T12:45:17;18.50;53.70
64888;DHT22;51386;53.082;8.816;2023-05-23T12:47:45;18.50;54.50
64888;DHT22;51386;53.082;8.816;2023-05-23T12:50:12;18.50;53.50
64888;DHT22;51386;53.082;8.816;2023-05-23T12:52:39;18.50;53.30
64888;DHT22;51386;53.082;8.816;2023-05-23T12:55:07;18.60;53.50
64888;DHT22;51386;53.082;8.816;2023-05-23T12:57:35;18.60;52.80
64888;DHT22;51386;53.082;8.816;2023-05-23T13:00:03;18.70;53.40
64888;DHT22;51386;53.082;8.816;2023-05-23T13:02:31;18.70;52.20
64888;DHT22;51386;53.082;8.816;2023-05-23T13:05:00;18.80;52.40
64888;DHT22;51386;53.082;8.816;2023-05-23T13:07:27;18.80;51.70
64888;DHT22;51386;53.082;8.816;2023-05-23T13:09:55;18.90;51.80
64888;DHT22;51386;53.082;8.816;2023-05-23T13:12:23;18.90;51.80
64888;DHT22;51386;53.082;8.816;2023-05-23T13:14:50;18.90;52.40
64888;DHT22;51386;53.082;8.816;2023-05-23T13:17:17;18.90;51.90
64888;DHT22;51386;53.082;8.816;2023-05-23T13:19:45;19.00;51.60
64888;DHT22;51386;53.082;8.816;2023-05-23T13:22:14;19.00;51.40
64888;DHT22;51386;53.082;8.816;2023-05-23T13:24:41;19.00;51.70
64888;DHT22;51386;53.082;8.816;2023-05-23T13:27:09;18.90;51.20
64888;DHT22;51386;53.082;8.816;2023-05-23T13:29:36;18.90;52.00
64888;DHT22;51386;53.082;8.816;2023-05-23T13:32:03;18.70;52.40
64888;DHT22;51386;53.082;8.816;2023-05-23T13:34:30;18.70;53.30
64888;DHT22;51386;53.082;8.816;2023-05-23T13:36:58;18.70;53.70
64888;DHT22;51386;53.082;8.816;2023-05-23T13:39:26;18.70;53.10
64888;DHT22;51386;53.082;8.816;2023-05-23T13:41:53;18.70;52.60
64888;DHT22;51386;53.082;8.816;2023-05-23T13:44:20;18.60;52.50
64888;DHT22;51386;53.082;8.816;2023-05-23T13:46:47;18.60;52.50
64888;DHT22;51386;53.082;8.816;2023-05-23T13:49:14;18.50;52.70
64888;DHT22;51386;53.082;8.816;2023-05-23T13:51:41;18.40;52.70
64888;DHT22;51386;53.082;8.816;2023-05-23T13:54:09;18.40;53.10
64888;DHT22;51386;53.082;8.816;2023-05-23T13:56:38;18.40;53.50
64888;DHT22;51386;53.082;8.816;2023-05-23T13:59:05;18.40;53.30
64888;DHT22;51386;53.082;8.816;2023-05-23T14:01:33;18.40;53.10
64888;DHT22;51386;53.082;8.816;2023-05-23T14:04:00;18.40;53.00
64888;DHT22;51386;53.082;8.816;2023-05-23T14:06:27;18.50;53.40
64888;DHT22;51386;53.082;8.816;2023-05-23T14:08:53;18.50;53.50
64888;DHT22;51386;53.082;8.816;2023-05-23T14:11:21;18.60;53.60
64888;DHT22;51386;53.082;8.816;2023-05-23T14:13:50;18.70;53.30
64888;DHT22;51386;53.082;8.816;2023-05-23T14:16:17;18.80;52.20
64888;DHT22;51386;53.082;8.816;2023-05-23T14:18:44;18.90;51.60
64888;DHT22;51386;53.082;8.816;2023-05-23T14:21:11;19.10;51.80
64888;DHT22;51386;53.082;8.816;2023-05-23T14:23:37;19.20;51.30
64888;DHT22;51386;53.082;8.816;2023-05-23T14:26:04;19.20;50.20
64888;DHT22;51386;53.082;8.816;2023-05-23T14:28:32;19.30;49.20
64888;DHT22;51386;53.082;8.816;2023-05-23T14:31:00;19.30;48.80
64888;DHT22;51386;53.082;8.816;2023-05-23T14:33:27;19.40;49.90
64888;DHT22;51386;53.082;8.816;2023-05-23T14:35:54;19.50;49.80
64888;DHT22;51386;53.082;8.816;2023-05-23T14:38:21;19.50;50.10
64888;DHT22;51386;53.082;8.816;2023-05-23T14:40:48;19.30;49.00
64888;DHT22;51386;53.082;8.816;2023-05-23T14:43:16;19.20;49.40
64888;DHT22;51386;53.082;8.816;2023-05-23T14:45:43;19.10;48.50
64888;DHT22;51386;53.082;8.816;2023-05-23T14:48:12;19.10;48.70
64888;DHT22;51386;53.082;8.816;2023-05-23T14:50:39;19.20;48.90
64888;DHT22;51386;53.082;8.816;2023-05-23T14:53:06;19.30;47.80
64888;DHT22;51386;53.082;8.816;2023-05-23T14:55:33;19.30;48.00
64888;DHT22;51386;53.082;8.816;2023-05-23T14:58:00;19.50;48.50
64888;DHT22;51386;53.082;8.816;2023-05-23T15:00:29;19.60;47.40
64888;DHT22;51386;53.082;8.816;2023-05-23T15:02:56;19.70;46.50
64888;DHT22;51386;53.082;8.816;2023-05-23T15:05:24;19.50;45.90
64888;DHT22;51386;53.082;8.816;2023-05-23T15:07:51;19.50;46.00
64888;DHT22;51386;53.082;8.816;2023-05-23T15:10:18;19.50;46.30
64888;DHT22;51386;53.082;8.816;2023-05-23T15:12:45;19.30;46.10
64888;DHT22;51386;53.082;8.816;2023-05-23T15:15:12;19.20;47.00
64888;DHT22;51386;53.082;8.816;2023-05-23T15:17:39;19.10;47.60
64888;DHT22;51386;53.082;8.816;2023-05-23T15:20:07;19.00;47.70
64888;DHT22;51386;53.082;8.816;2023-05-23T15:22:37;19.10;47.20
64888;DHT22;51386;53.082;8.816;2023-05-23T15:25:06;19.10;46.90
64888;DHT22;51386;53.082;8.816;2023-05-23T15:27:34;19.10;46.40
64888;DHT22;51386;53.082;8.816;2023-05-23T15:30:02;19.20;47.50
64888;DHT22;51386;53.082;8.816;2023-05-23T15:32:30;19.10;46.50
64888;DHT22;51386;53.082;8.816;2023-05-23T15:34:57;19.00;47.30
64888;DHT22;51386;53.082;8.816;2023-05-23T15:37:24;19.00;47.90
64888;DHT22;51386;53.082;8.816;2023-05-23T15:39:52;19.00;48.20
64888;DHT22;51386;53.082;8.816;2023-05-23T15:42:20;19.00;47.30
64888;DHT22;51386;53.082;8.816;2023-05-23T15:44:47;18.90;46.90
64888;DHT22;51386;53.082;8.816;2023-05-23T15:47:14;18.80;47.60